createdAt,value
2023-02-04T00:00:06.400Z,1.45
2023-02-04T00:02:34.001Z,1.50
2023-02-04T00:05:00.981Z,1.27
2023-02-04T00:07:27.908Z,1.30
2023-02-04T00:09:54.834Z,1.20
2023-02-04T00:12:21.746Z,1.45
2023-02-04T00:14:48.716Z,1.40
2023-02-04T00:17:15.841Z,1.35
2023-02-04T00:19:43.046Z,1.83
2023-02-04T00:22:10.208Z,1.35
2023-02-04T00:24:38.065Z,1.20
2023-02-04T00:27:06.291Z,1.25
2023-02-04T00:29:36.719Z,2.10
2023-02-04T00:32:03.742Z,1.13
2023-02-04T00:34:30.745Z,1.58
2023-02-04T00:36:57.645Z,1.35
2023-02-04T00:39:25.053Z,1.73
2023-02-04T00:41:51.861Z,1.20
2023-02-04T00:44:18.870Z,1.27
2023-02-04T00:46:45.992Z,1.52
2023-02-04T00:49:12.936Z,2.45
2023-02-04T00:51:41.077Z,1.10
2023-02-04T00:54:08.210Z,1.15
2023-02-04T00:56:35.030Z,1.00
2023-02-04T00:59:01.998Z,1.20
2023-02-04T01:01:29.106Z,1.33
2023-02-04T01:03:55.892Z,1.48
2023-02-04T01:06:22.679Z,1.50
2023-02-04T01:08:49.614Z,1.25
2023-02-04T01:11:17.050Z,1.40
2023-02-04T01:13:44.003Z,1.80
2023-02-04T01:16:11.050Z,1.73
2023-02-04T01:18:38.072Z,1.13
2023-02-04T01:21:05.213Z,1.30
2023-02-04T01:23:32.245Z,1.40
2023-02-04T01:25:59.137Z,1.60
2023-02-04T01:28:25.947Z,1.55
2023-02-04T01:30:52.857Z,1.23
2023-02-04T01:33:19.908Z,1.50
2023-02-04T01:35:46.720Z,1.50
2023-02-04T01:38:13.769Z,1.23
2023-02-04T01:40:42.315Z,1.40
2023-02-04T01:43:10.478Z,1.30
2023-02-04T01:45:37.462Z,1.48
2023-02-04T01:48:06.156Z,1.30
2023-02-04T01:50:34.064Z,1.50
2023-02-04T01:53:01.735Z,1.40
2023-02-04T01:55:31.869Z,1.73
2023-02-04T01:57:59.161Z,1.48
2023-02-04T02:00:30.461Z,1.70
2023-02-04T02:02:58.914Z,1.20
2023-02-04T02:05:34.483Z,1.38
2023-02-04T02:08:03.663Z,1.15
2023-02-04T02:10:32.364Z,1.25
2023-02-04T02:12:59.648Z,1.27
2023-02-04T02:15:27.019Z,1.38
2023-02-04T02:17:55.732Z,1.65
2023-02-04T02:20:25.102Z,1.50
2023-02-04T02:23:13.768Z,1.25
2023-02-04T02:25:40.967Z,1.80
2023-02-04T02:28:13.892Z,1.38
2023-02-04T02:30:42.355Z,1.35
2023-02-04T02:33:09.375Z,1.30
2023-02-04T02:35:36.117Z,0.95
2023-02-04T02:38:03.082Z,1.40
2023-02-04T02:40:30.297Z,1.30
2023-02-04T02:42:57.447Z,1.40
2023-02-04T02:45:27.453Z,1.45
2023-02-04T02:47:56.462Z,1.30
2023-02-04T02:50:26.229Z,1.50
2023-02-04T02:52:54.242Z,1.33
2023-02-04T02:55:24.874Z,1.30
2023-02-04T02:57:52.735Z,1.25
2023-02-04T03:00:24.124Z,1.13
2023-02-04T03:03:02.658Z,1.20
2023-02-04T03:05:31.312Z,1.38
2023-02-04T03:07:58.586Z,1.92
2023-02-04T03:10:25.712Z,1.00
2023-02-04T03:12:52.662Z,1.52
2023-02-04T03:15:20.261Z,1.20
2023-02-04T03:17:47.608Z,1.10
2023-02-04T03:20:16.132Z,1.00
2023-02-04T03:22:42.996Z,1.38
2023-02-04T03:25:10.035Z,1.60
2023-02-04T03:27:37.106Z,1.05
2023-02-04T03:30:04.441Z,1.08
2023-02-04T03:32:31.325Z,1.27
2023-02-04T03:34:58.141Z,1.23
2023-02-04T03:37:24.903Z,1.05
2023-02-04T03:39:51.785Z,1.55
2023-02-04T03:42:19.134Z,1.40
2023-02-04T03:44:46.138Z,1.27
2023-02-04T03:47:13.162Z,1.10
2023-02-04T03:49:39.912Z,1.20
2023-02-04T03:52:07.108Z,1.60
2023-02-04T03:54:34.041Z,1.00
2023-02-04T03:57:01.080Z,1.05
2023-02-04T03:59:28.065Z,1.15
2023-02-04T04:01:55.208Z,1.23
2023-02-04T04:04:22.181Z,1.17
2023-02-04T04:06:49.029Z,1.48
2023-02-04T04:09:15.820Z,1.40
2023-02-04T04:11:42.795Z,0.93
2023-02-04T04:14:09.741Z,1.30
2023-02-04T04:16:36.837Z,1.30
2023-02-04T04:19:03.825Z,1.25
2023-02-04T04:21:30.552Z,1.40
2023-02-04T04:23:57.322Z,1.02
2023-02-04T04:26:24.159Z,1.45
2023-02-04T04:28:51.207Z,1.08
2023-02-04T04:31:17.952Z,1.20
2023-02-04T04:33:44.941Z,1.30
2023-02-04T04:36:11.896Z,1.23
2023-02-04T04:38:38.910Z,1.05
2023-02-04T04:41:05.718Z,1.50
2023-02-04T04:43:32.733Z,1.65
2023-02-04T04:45:59.769Z,1.13
2023-02-04T04:48:26.889Z,0.98
2023-02-04T04:50:53.595Z,1.38
2023-02-04T04:53:20.499Z,1.20
2023-02-04T04:55:47.384Z,1.38
2023-02-04T04:58:14.312Z,2.13
2023-02-04T05:00:41.791Z,1.42
2023-02-04T05:03:08.542Z,1.60
2023-02-04T05:05:40.081Z,1.02
2023-02-04T05:08:13.298Z,1.55
2023-02-04T05:10:41.301Z,1.85
2023-02-04T05:13:08.164Z,1.40
2023-02-04T05:15:35.453Z,1.13
2023-02-04T05:18:02.798Z,1.15
2023-02-04T05:20:29.846Z,1.60
2023-02-04T05:22:57.276Z,1.48
2023-02-04T05:25:24.353Z,1.50
2023-02-04T05:27:51.150Z,1.45
2023-02-04T05:30:18.216Z,1.60
2023-02-04T05:32:45.150Z,1.45
2023-02-04T05:35:12.200Z,1.75
2023-02-04T05:37:38.992Z,1.20
2023-02-04T05:40:06.376Z,1.52
2023-02-04T05:42:33.675Z,1.77
2023-02-04T05:45:00.561Z,1.55
2023-02-04T05:47:29.923Z,1.30
2023-02-04T05:49:56.733Z,1.55
2023-02-04T05:52:23.740Z,1.25
2023-02-04T05:54:50.559Z,1.55
2023-02-04T05:57:17.517Z,1.40
2023-02-04T05:59:44.354Z,1.60
2023-02-04T06:02:11.184Z,1.25
2023-02-04T06:04:38.096Z,1.10
2023-02-04T06:07:05.019Z,2.42
2023-02-04T06:09:31.885Z,1.65
2023-02-04T06:11:58.768Z,1.20
2023-02-04T06:14:25.597Z,1.48
2023-02-04T06:16:52.544Z,1.30
2023-02-04T06:19:19.639Z,1.70
2023-02-04T06:21:46.356Z,1.00
2023-02-04T06:24:13.236Z,1.33
2023-02-04T06:26:39.991Z,1.40
2023-02-04T06:29:06.909Z,1.25
2023-02-04T06:31:33.759Z,1.45
2023-02-04T06:34:00.709Z,1.30
2023-02-04T06:36:27.703Z,1.60
2023-02-04T06:38:54.862Z,1.38
2023-02-04T06:41:21.842Z,1.27
2023-02-04T06:43:48.676Z,1.30
2023-02-04T06:46:16.301Z,1.23
2023-02-04T06:48:43.190Z,1.20
2023-02-04T06:51:10.130Z,1.30
2023-02-04T06:53:36.968Z,1.23
2023-02-04T06:56:04.021Z,1.35
2023-02-04T06:58:30.963Z,1.27
2023-02-04T07:00:57.831Z,1.00
2023-02-04T07:03:30.733Z,1.00
2023-02-04T07:05:57.594Z,1.20
2023-02-04T07:08:24.637Z,1.35
2023-02-04T07:10:51.421Z,1.10
2023-02-04T07:13:18.432Z,1.33
2023-02-04T07:15:45.449Z,1.35
2023-02-04T07:18:12.548Z,1.30
2023-02-04T07:20:39.515Z,1.00
2023-02-04T07:23:06.465Z,1.77
2023-02-04T07:25:33.445Z,1.58
2023-02-04T07:28:02.058Z,1.92
2023-02-04T07:30:29.243Z,1.08
2023-02-04T07:32:56.090Z,1.52
2023-02-04T07:35:23.116Z,1.75
2023-02-04T07:37:50.553Z,1.48
2023-02-04T07:40:17.652Z,1.83
2023-02-04T07:42:45.432Z,1.38
2023-02-04T07:45:12.333Z,1.23
2023-02-04T07:47:39.065Z,1.23
2023-02-04T07:50:06.408Z,1.42
2023-02-04T07:52:33.237Z,1.30
2023-02-04T07:55:00.204Z,1.50
2023-02-04T07:57:27.305Z,1.27
2023-02-04T07:59:54.235Z,1.05
2023-02-04T08:02:21.453Z,1.17
2023-02-04T08:04:48.420Z,1.30
2023-02-04T08:07:15.324Z,1.45
2023-02-04T08:09:42.322Z,1.30
2023-02-04T08:12:09.296Z,1.17
2023-02-04T08:14:37.511Z,1.30
2023-02-04T08:17:04.557Z,1.52
2023-02-04T08:19:31.611Z,1.10
2023-02-04T08:21:58.500Z,2.30
2023-02-04T08:24:25.473Z,1.40
2023-02-04T08:26:52.156Z,1.30
2023-02-04T08:29:19.025Z,1.30
2023-02-04T08:31:47.820Z,1.30
2023-02-04T08:34:15.072Z,1.00
2023-02-04T08:36:41.829Z,1.63
2023-02-04T08:39:08.865Z,1.33
2023-02-04T08:41:35.798Z,1.27
2023-02-04T08:44:02.800Z,1.40
2023-02-04T08:46:29.978Z,1.50
2023-02-04T08:48:56.893Z,1.27
2023-02-04T08:51:23.857Z,1.30
2023-02-04T08:53:50.883Z,1.15
2023-02-04T08:56:20.588Z,1.10
2023-02-04T08:58:50.360Z,1.08
2023-02-04T09:01:17.559Z,0.98
2023-02-04T09:03:45.175Z,1.10
2023-02-04T09:06:12.591Z,1.00
2023-02-04T09:08:39.498Z,0.95
2023-02-04T09:11:06.426Z,1.13
2023-02-04T09:13:33.978Z,1.17
2023-02-04T09:16:01.054Z,1.40
2023-02-04T09:18:28.321Z,1.42
2023-02-04T09:20:55.389Z,1.30
2023-02-04T09:23:23.308Z,1.17
2023-02-04T09:25:50.447Z,1.77
2023-02-04T09:28:17.674Z,0.88
2023-02-04T09:30:47.164Z,1.05
2023-02-04T09:33:17.136Z,1.15
2023-02-04T09:35:44.461Z,0.75
2023-02-04T09:38:11.650Z,0.90
2023-02-04T09:40:44.613Z,1.10
2023-02-04T09:43:21.120Z,2.13
2023-02-04T09:45:49.585Z,1.17
2023-02-04T09:48:17.349Z,1.10
2023-02-04T09:50:44.852Z,1.00
2023-02-04T09:53:15.999Z,1.17
2023-02-04T09:55:45.087Z,2.33
2023-02-04T09:58:21.867Z,1.55
2023-02-04T10:00:56.857Z,1.38
2023-02-04T10:05:51.921Z,1.17
2023-02-04T10:08:25.462Z,1.48
2023-02-04T10:10:52.452Z,1.38
2023-02-04T10:13:31.790Z,1.33
2023-02-04T10:16:00.339Z,1.67
2023-02-04T10:18:32.273Z,1.60
2023-02-04T10:21:28.501Z,1.52
2023-02-04T10:23:57.995Z,1.42
2023-02-04T10:26:29.085Z,1.10
2023-02-04T10:29:19.848Z,1.38
2023-02-04T10:31:49.560Z,1.60
2023-02-04T10:34:32.914Z,0.90
2023-02-04T10:37:01.337Z,3.67
2023-02-04T10:39:30.363Z,1.33
2023-02-04T10:42:00.224Z,1.00
2023-02-04T10:44:28.533Z,1.10
2023-02-04T10:47:36.216Z,1.65
2023-02-04T10:50:07.794Z,1.40
2023-02-04T10:52:40.463Z,0.73
2023-02-04T10:55:16.869Z,1.50
2023-02-04T10:57:47.093Z,1.10
2023-02-04T11:00:17.280Z,1.45
2023-02-04T11:02:48.693Z,1.27
2023-02-04T11:05:18.045Z,1.25
2023-02-04T11:07:46.960Z,0.95
2023-02-04T11:10:16.684Z,1.17
2023-02-04T11:12:53.937Z,1.17
2023-02-04T11:15:51.146Z,1.40
2023-02-04T11:18:21.293Z,1.17
2023-02-04T11:20:50.139Z,1.65
2023-02-04T11:23:26.491Z,1.58
2023-02-04T11:26:08.506Z,1.50
2023-02-04T11:28:41.525Z,1.23
2023-02-04T11:31:34.586Z,1.50
2023-02-04T11:34:16.642Z,1.58
2023-02-04T11:37:13.054Z,1.33
2023-02-04T11:39:43.115Z,1.38
2023-02-04T11:42:40.639Z,1.52
2023-02-04T11:45:24.100Z,1.70
2023-02-04T11:47:51.891Z,1.70
2023-02-04T11:50:30.789Z,1.38
2023-02-04T11:52:59.915Z,1.33
2023-02-04T11:55:26.898Z,1.52
2023-02-04T11:57:56.599Z,1.17
2023-02-04T12:00:31.619Z,1.30
2023-02-04T12:05:39.990Z,1.58
2023-02-04T12:08:24.893Z,2.17
2023-02-04T12:11:07.804Z,1.45
2023-02-04T12:13:35.097Z,1.45
2023-02-04T12:18:58.413Z,1.60
2023-02-04T12:21:25.228Z,2.20
2023-02-04T12:23:52.025Z,1.65
2023-02-04T12:26:18.728Z,1.60
2023-02-04T12:28:45.835Z,1.52
2023-02-04T12:31:12.849Z,2.17
2023-02-04T12:33:39.826Z,1.65
2023-02-04T12:36:07.314Z,2.20
2023-02-04T12:38:34.394Z,1.75
2023-02-04T12:41:01.318Z,2.38
2023-02-04T12:43:28.533Z,1.70
2023-02-04T12:45:55.858Z,1.73
2023-02-04T12:48:22.859Z,1.73
2023-02-04T12:50:49.709Z,2.17
2023-02-04T12:53:16.508Z,2.20
2023-02-04T12:55:43.242Z,2.22
2023-02-04T12:58:10.040Z,2.25
2023-02-04T13:00:37.545Z,2.25
2023-02-04T13:03:05.526Z,2.80
2023-02-04T13:05:32.999Z,2.20
2023-02-04T13:08:00.106Z,2.25
2023-02-04T13:10:26.801Z,1.80
2023-02-04T13:12:53.979Z,1.52
2023-02-04T13:15:20.936Z,2.47
2023-02-04T13:17:47.947Z,2.05
2023-02-04T13:20:14.999Z,1.52
2023-02-04T13:22:41.757Z,1.75
2023-02-04T13:25:10.345Z,1.83
2023-02-04T13:27:40.858Z,1.70
2023-02-04T13:30:09.365Z,1.63
2023-02-04T13:32:36.100Z,1.70
2023-02-04T13:35:03.090Z,1.90
2023-02-04T13:37:30.103Z,2.17
2023-02-04T13:39:56.872Z,1.88
2023-02-04T13:42:24.104Z,2.58
2023-02-04T13:44:51.050Z,2.03
2023-02-04T13:47:18.058Z,1.95
2023-02-04T13:49:45.040Z,2.20
2023-02-04T13:52:11.798Z,2.22
2023-02-04T13:54:38.669Z,2.13
2023-02-04T13:57:05.810Z,2.15
2023-02-04T13:59:32.829Z,1.80
2023-02-04T14:01:59.707Z,2.00
2023-02-04T14:04:27.201Z,2.47
2023-02-04T14:06:55.349Z,2.30
2023-02-04T14:09:23.376Z,2.47
2023-02-04T14:11:52.062Z,2.08
2023-02-04T14:14:19.040Z,2.65
2023-02-04T14:16:46.040Z,2.75
2023-02-04T14:19:13.168Z,3.78
2023-02-04T14:21:39.834Z,2.70
2023-02-04T14:24:06.969Z,3.45
2023-02-04T14:26:33.857Z,3.30
2023-02-04T14:29:00.829Z,2.67
2023-02-04T14:31:27.750Z,2.47
2023-02-04T14:33:55.499Z,3.22
2023-02-04T14:36:22.544Z,3.22
2023-02-04T14:38:49.701Z,2.22
2023-02-04T14:41:20.199Z,2.78
2023-02-04T14:43:47.756Z,2.35
2023-02-04T14:46:14.795Z,2.88
2023-02-04T14:48:41.917Z,2.97
2023-02-04T14:51:08.882Z,2.45
2023-02-04T14:53:35.690Z,2.00
2023-02-04T14:56:02.698Z,2.10
2023-02-04T14:58:29.701Z,2.15
2023-02-04T15:00:56.716Z,2.33
2023-02-04T15:03:23.768Z,2.60
2023-02-04T15:05:50.464Z,2.47
2023-02-04T15:08:17.292Z,1.90
2023-02-04T15:10:44.161Z,2.58
2023-02-04T15:13:11.414Z,3.28
2023-02-04T15:15:38.340Z,3.47
2023-02-04T15:18:05.421Z,3.15
2023-02-04T15:20:32.632Z,2.92
2023-02-04T15:23:00.750Z,2.22
2023-02-04T15:25:28.053Z,3.00
2023-02-04T15:27:54.887Z,3.00
2023-02-04T15:30:21.790Z,2.80
2023-02-04T15:32:48.692Z,4.00
2023-02-04T15:35:15.707Z,4.18
2023-02-04T15:37:42.650Z,3.67
2023-02-04T15:40:10.657Z,5.43
2023-02-04T15:42:37.601Z,5.20
2023-02-04T15:45:05.064Z,7.28
2023-02-04T15:47:31.886Z,3.80
2023-02-04T15:49:58.668Z,2.95
2023-02-04T15:52:26.105Z,3.47
2023-02-04T15:54:53.727Z,3.08
2023-02-04T15:57:20.593Z,4.10
2023-02-04T15:59:47.345Z,2.90
2023-02-04T16:02:14.263Z,3.65
2023-02-04T16:04:41.658Z,3.67
2023-02-04T16:07:08.590Z,3.70
2023-02-04T16:09:37.028Z,3.30
2023-02-04T16:12:04.358Z,4.03
2023-02-04T16:14:31.308Z,4.03
2023-02-04T16:16:59.694Z,2.78
2023-02-04T16:19:26.684Z,3.40
2023-02-04T16:21:53.473Z,3.35
2023-02-04T16:24:21.320Z,3.80
2023-02-04T16:26:48.185Z,4.97
2023-02-04T16:29:15.052Z,3.47
2023-02-04T16:31:41.813Z,4.05
2023-02-04T16:34:08.805Z,3.75
2023-02-04T16:36:36.808Z,3.90
2023-02-04T16:39:03.743Z,4.53
2023-02-04T16:41:30.430Z,5.32
2023-02-04T16:43:57.991Z,3.63
2023-02-04T16:46:25.014Z,2.75
2023-02-04T16:48:51.818Z,3.60
2023-02-04T16:51:20.638Z,5.53
2023-02-04T16:53:47.762Z,3.13
2023-02-04T16:56:14.814Z,3.80
2023-02-04T16:58:41.785Z,5.75
2023-02-04T17:01:08.783Z,10.25
2023-02-04T17:03:35.704Z,2.90
2023-02-04T17:06:02.818Z,2.65
2023-02-04T17:08:29.828Z,2.28
2023-02-04T17:11:15.353Z,2.60
2023-02-04T17:13:42.247Z,2.80
2023-02-04T17:16:09.320Z,3.80
2023-02-04T17:18:36.369Z,1.92
2023-02-04T17:21:03.312Z,2.42
2023-02-04T17:23:30.317Z,2.67
2023-02-04T17:25:57.096Z,3.78
2023-02-04T17:28:24.415Z,1.90
2023-02-04T17:30:51.328Z,2.33
2023-02-04T17:33:18.243Z,2.03
2023-02-04T17:35:45.868Z,1.73
2023-02-04T17:38:12.730Z,1.85
2023-02-04T17:40:39.402Z,1.90
2023-02-04T17:43:07.719Z,1.92
2023-02-04T17:45:35.630Z,2.10
2023-02-04T17:48:02.649Z,2.25
2023-02-04T17:50:29.629Z,1.80
2023-02-04T17:52:56.602Z,2.38
2023-02-04T17:55:29.584Z,2.08
2023-02-04T17:57:59.729Z,1.90
2023-02-04T18:00:30.771Z,2.35
2023-02-04T18:02:57.917Z,2.50
2023-02-04T18:05:27.828Z,2.60
2023-02-04T18:08:18.840Z,4.05
2023-02-04T18:10:50.314Z,3.35
2023-02-04T18:13:34.435Z,3.50
2023-02-04T18:16:10.291Z,4.07
2023-02-04T18:18:39.809Z,3.13
2023-02-04T18:21:27.892Z,3.15
2023-02-04T18:24:01.339Z,3.78
2023-02-04T18:26:28.661Z,3.70
2023-02-04T18:28:55.821Z,3.47
2023-02-04T18:31:25.643Z,4.05
2023-02-04T18:33:52.681Z,3.55
2023-02-04T18:36:20.914Z,3.65
2023-02-04T18:38:47.637Z,3.45
2023-02-04T18:41:23.275Z,3.58
2023-02-04T18:44:02.544Z,4.50
2023-02-04T18:46:35.837Z,5.15
2023-02-04T18:49:08.834Z,5.35
2023-02-04T18:51:40.539Z,5.35
2023-02-04T18:54:25.883Z,4.70
2023-02-04T18:56:53.967Z,4.60
2023-02-04T18:59:23.963Z,4.70
2023-02-04T19:01:51.200Z,4.28
2023-02-04T19:04:22.405Z,3.78
2023-02-04T19:06:52.366Z,4.25
2023-02-04T19:09:32.802Z,4.40
2023-02-04T19:12:13.681Z,4.72
2023-02-04T19:14:42.898Z,4.93
2023-02-04T19:17:30.303Z,3.85
2023-02-04T19:19:58.762Z,3.05
2023-02-04T19:22:49.910Z,3.50
2023-02-04T19:25:29.939Z,3.15
2023-02-04T19:27:59.866Z,3.90
2023-02-04T19:30:26.884Z,3.42
2023-02-04T19:32:57.278Z,4.53
2023-02-04T19:35:27.228Z,4.40
2023-02-04T19:38:00.792Z,3.47
2023-02-04T19:40:31.779Z,4.00
2023-02-04T19:43:20.962Z,4.15
2023-02-04T19:45:51.049Z,2.67
2023-02-04T19:48:39.025Z,3.10
2023-02-04T19:51:25.801Z,2.83
2023-02-04T19:53:59.247Z,2.50
2023-02-04T19:56:31.973Z,2.40
2023-02-04T19:59:13.145Z,3.53
2023-02-04T20:01:39.983Z,3.47
2023-02-04T20:04:14.627Z,2.47
2023-02-04T20:06:43.762Z,3.35
2023-02-04T20:09:16.544Z,2.83
2023-02-04T20:11:51.962Z,3.97
2023-02-04T20:14:21.906Z,3.05
2023-02-04T20:16:57.837Z,3.70
2023-02-04T20:19:30.351Z,3.45
2023-02-04T20:22:02.947Z,2.45
2023-02-04T20:24:35.793Z,2.47
2023-02-04T20:27:18.158Z,3.55
2023-02-04T20:29:45.656Z,3.38
2023-02-04T20:32:26.338Z,3.60
2023-02-04T20:35:22.423Z,2.83
2023-02-04T20:37:56.023Z,3.15
2023-02-04T20:40:32.015Z,6.57
2023-02-04T20:43:24.891Z,3.90
2023-02-04T20:46:00.206Z,2.95
2023-02-04T20:48:35.192Z,2.40
2023-02-04T20:51:04.788Z,3.45
2023-02-04T20:54:00.824Z,4.13
2023-02-04T20:56:27.708Z,3.85
2023-02-04T20:59:11.802Z,3.58
2023-02-04T21:01:46.739Z,3.28
2023-02-04T21:04:23.295Z,3.83
2023-02-04T21:06:52.290Z,3.25
2023-02-04T21:09:28.265Z,3.70
2023-02-04T21:11:56.408Z,4.25
2023-02-04T21:14:24.106Z,3.08
2023-02-04T21:16:51.097Z,4.07
2023-02-04T21:19:17.834Z,3.60
2023-02-04T21:21:45.506Z,2.95
2023-02-04T21:24:12.317Z,2.65
2023-02-04T21:26:39.869Z,3.53
2023-02-04T21:29:06.962Z,6.07
2023-02-04T21:31:34.283Z,5.45
2023-02-04T21:34:01.256Z,4.78
2023-02-04T21:36:28.361Z,4.35
2023-02-04T21:38:56.328Z,4.80
2023-02-04T21:41:23.795Z,4.55
2023-02-04T21:43:51.136Z,4.30
2023-02-04T21:46:18.753Z,3.75
2023-02-04T21:48:46.065Z,4.35
2023-02-04T21:51:14.015Z,3.40
2023-02-04T21:53:41.518Z,3.58
2023-02-04T21:56:09.441Z,3.28
2023-02-04T21:58:36.666Z,3.58
2023-02-04T22:01:03.729Z,3.85
2023-02-04T22:03:30.889Z,3.35
2023-02-04T22:05:57.834Z,3.30
2023-02-04T22:08:24.729Z,3.10
2023-02-04T22:10:51.823Z,3.88
2023-02-04T22:13:37.651Z,3.08
2023-02-04T22:16:04.752Z,3.58
2023-02-04T22:18:31.459Z,2.88
2023-02-04T22:20:58.408Z,3.60
2023-02-04T22:23:25.467Z,3.28
2023-02-04T22:25:52.244Z,3.38
2023-02-04T22:28:19.328Z,3.35
2023-02-04T22:30:46.372Z,2.90
2023-02-04T22:33:14.271Z,2.28
2023-02-04T22:35:41.222Z,3.25
2023-02-04T22:38:08.155Z,2.83
2023-02-04T22:40:35.146Z,2.72
2023-02-04T22:43:02.327Z,2.40
2023-02-04T22:45:29.232Z,2.30
2023-02-04T22:47:56.036Z,2.60
2023-02-04T22:50:23.043Z,2.10
2023-02-04T22:52:49.925Z,2.67
2023-02-04T22:55:16.757Z,2.35
2023-02-04T22:57:43.633Z,2.28
2023-02-04T23:00:11.250Z,2.55
2023-02-04T23:02:38.053Z,3.38
2023-02-04T23:05:05.380Z,2.88
2023-02-04T23:07:32.220Z,3.13
2023-02-04T23:09:59.236Z,2.60
2023-02-04T23:12:26.326Z,2.50
2023-02-04T23:14:53.338Z,2.60
2023-02-04T23:17:20.360Z,2.70
2023-02-04T23:19:47.413Z,3.25
2023-02-04T23:22:15.498Z,3.15
2023-02-04T23:24:43.696Z,3.17
2023-02-04T23:27:11.635Z,2.53
2023-02-04T23:29:39.888Z,3.42
2023-02-04T23:32:07.110Z,3.05
2023-02-04T23:34:34.424Z,2.35
2023-02-04T23:37:01.544Z,2.90
2023-02-04T23:39:28.835Z,3.75
2023-02-04T23:41:55.701Z,2.33
2023-02-04T23:44:23.058Z,3.10
2023-02-04T23:46:50.211Z,3.20
2023-02-04T23:49:17.236Z,3.63
2023-02-04T23:51:44.371Z,2.85
2023-02-04T23:54:11.408Z,2.88
2023-02-04T23:56:38.601Z,2.80
2023-02-04T23:59:05.942Z,2.50
